sensor_id;sensor_type;location;lat;lon;timestamp;pressure;altitude;pressure_sealevel;temperature;humidity
5883;BME280;2967;51.488;6.618;2023-04-15T00:00:26;100488.38;;;10.86;97.48
5883;BME280;2967;51.488;6.618;2023-04-15T00:05:29;100487.75;;;10.82;97.83
5883;BME280;2967;51.488;6.618;2023-04-15T00:10:34;100492.53;;;10.77;96.72
5883;BME280;2967;51.488;6.618;2023-04-15T00:15:37;100485.00;;;10.71;95.55
5883;BME280;2967;51.488;6.618;2023-04-15T00:20:39;100483.84;;;10.75;98.57
5883;BME280;2967;51.488;6.618;2023-04-15T00:25:43;100487.56;;;10.73;97.80
5883;BME280;2967;51.488;6.618;2023-04-15T00:30:46;100488.16;;;10.27;98.84
5883;BME280;2967;51.488;6.618;2023-04-15T00:35:49;100483.94;;;10.12;99.15
5883;BME280;2967;51.488;6.618;2023-04-15T00:40:53;100487.78;;;9.94;99.70
5883;BME280;2967;51.488;6.618;2023-04-15T00:45:57;100488.28;;;10.13;100.00
5883;BME280;2967;51.488;6.618;2023-04-15T00:51:01;100495.25;;;10.14;100.00
5883;BME280;2967;51.488;6.618;2023-04-15T00:56:05;100496.84;;;10.16;100.00
5883;BME280;2967;51.488;6.618;2023-04-15T01:01:09;100482.94;;;10.00;100.00
5883;BME280;2967;51.488;6.618;2023-04-15T01:06:11;100491.09;;;9.71;98.77
5883;BME280;2967;51.488;6.618;2023-04-15T01:11:16;100493.19;;;9.66;99.36
5883;BME280;2967;51.488;6.618;2023-04-15T01:16:20;100489.03;;;9.88;100.00
5883;BME280;2967;51.488;6.618;2023-04-15T01:21:23;100488.13;;;9.63;99.59
5883;BME280;2967;51.488;6.618;2023-04-15T01:26:27;100496.25;;;9.60;100.00
5883;BME280;2967;51.488;6.618;2023-04-15T01:31:30;100483.06;;;9.33;100.00
5883;BME280;2967;51.488;6.618;2023-04-15T01:36:33;100486.53;;;9.34;100.00
5883;BME280;2967;51.488;6.618;2023-04-15T01:41:37;100487.69;;;9.30;100.00
5883;BME280;2967;51.488;6.618;2023-04-15T01:46:40;100489.00;;;9.23;100.00
5883;BME280;2967;51.488;6.618;2023-04-15T01:51:43;100492.38;;;9.25;100.00
5883;BME280;2967;51.488;6.618;2023-04-15T01:56:48;100493.75;;;9.04;100.00
5883;BME280;2967;51.488;6.618;2023-04-15T02:01:51;100487.16;;;9.11;100.00
5883;BME280;2967;51.488;6.618;2023-04-15T02:06:53;100491.47;;;9.12;100.00
5883;BME280;2967;51.488;6.618;2023-04-15T02:11:57;100488.47;;;9.04;100.00
5883;BME280;2967;51.488;6.618;2023-04-15T02:17:02;100496.19;;;9.21;100.00
5883;BME280;2967;51.488;6.618;2023-04-15T02:22:07;100496.25;;;9.33;100.00
5883;BME280;2967;51.488;6.618;2023-04-15T02:27:16;100499.84;;;9.32;100.00
5883;BME280;2967;51.488;6.618;2023-04-15T02:32:19;100506.16;;;9.16;100.00
5883;BME280;2967;51.488;6.618;2023-04-15T02:37:23;100503.53;;;9.16;100.00
5883;BME280;2967;51.488;6.618;2023-04-15T02:42:30;100514.03;;;9.03;100.00
5883;BME280;2967;51.488;6.618;2023-04-15T02:47:35;100503.59;;;8.88;100.00
5883;BME280;2967;51.488;6.618;2023-04-15T02:52:39;100520.59;;;9.24;100.00
5883;BME280;2967;51.488;6.618;2023-04-15T02:57:44;100536.72;;;9.06;100.00
5883;BME280;2967;51.488;6.618;2023-04-15T03:02:46;100539.53;;;8.75;100.00
5883;BME280;2967;51.488;6.618;2023-04-15T03:07:52;100450.78;;;8.04;100.00
5883;BME280;2967;51.488;6.618;2023-04-15T03:12:56;100537.34;;;8.39;100.00
5883;BME280;2967;51.488;6.618;2023-04-15T03:17:59;100549.50;;;8.56;100.00
5883;BME280;2967;51.488;6.618;2023-04-15T03:23:02;100556.69;;;8.82;100.00
5883;BME280;2967;51.488;6.618;2023-04-15T03:28:06;100555.44;;;8.59;100.00
5883;BME280;2967;51.488;6.618;2023-04-15T03:33:09;100557.91;;;8.76;100.00
5883;BME280;2967;51.488;6.618;2023-04-15T03:38:12;100552.25;;;8.68;100.00
5883;BME280;2967;51.488;6.618;2023-04-15T03:43:15;100556.03;;;8.64;100.00
5883;BME280;2967;51.488;6.618;2023-04-15T03:48:18;100557.41;;;8.56;100.00
5883;BME280;2967;51.488;6.618;2023-04-15T03:53:21;100564.41;;;8.85;100.00
5883;BME280;2967;51.488;6.618;2023-04-15T03:58:26;100573.66;;;8.92;100.00
5883;BME280;2967;51.488;6.618;2023-04-15T04:03:28;100575.63;;;8.88;100.00
5883;BME280;2967;51.488;6.618;2023-04-15T04:08:31;100587.03;;;8.89;100.00
5883;BME280;2967;51.488;6.618;2023-04-15T04:13:35;100583.34;;;8.91;100.00
5883;BME280;2967;51.488;6.618;2023-04-15T04:18:38;100587.41;;;8.97;100.00
5883;BME280;2967;51.488;6.618;2023-04-15T04:23:41;100593.63;;;8.96;100.00
5883;BME280;2967;51.488;6.618;2023-04-15T04:28:45;100595.78;;;8.89;100.00
5883;BME280;2967;51.488;6.618;2023-04-15T04:33:47;100602.59;;;8.93;100.00
5883;BME280;2967;51.488;6.618;2023-04-15T04:38:50;100607.56;;;8.84;100.00
5883;BME280;2967;51.488;6.618;2023-04-15T04:43:54;100616.81;;;8.91;100.00
5883;BME280;2967;51.488;6.618;2023-04-15T04:48:56;100610.66;;;8.90;100.00
5883;BME280;2967;51.488;6.618;2023-04-15T04:53:59;100620.78;;;8.98;100.00
5883;BME280;2967;51.488;6.618;2023-04-15T04:59:05;100620.28;;;8.91;100.00
5883;BME280;2967;51.488;6.618;2023-04-15T05:04:08;100634.25;;;8.93;100.00
5883;BME280;2967;51.488;6.618;2023-04-15T05:09:11;100634.31;;;8.92;100.00
5883;BME280;2967;51.488;6.618;2023-04-15T05:14:15;100636.59;;;8.98;100.00
5883;BME280;2967;51.488;6.618;2023-04-15T05:19:17;100647.31;;;8.95;100.00
5883;BME280;2967;51.488;6.618;2023-04-15T05:24:20;100646.00;;;8.88;100.00
5883;BME280;2967;51.488;6.618;2023-04-15T05:29:24;100653.53;;;8.80;100.00
5883;BME280;2967;51.488;6.618;2023-04-15T05:34:27;100653.59;;;8.78;100.00
5883;BME280;2967;51.488;6.618;2023-04-15T05:39:30;100678.50;;;8.88;100.00
5883;BME280;2967;51.488;6.618;2023-04-15T05:44:34;100682.56;;;8.94;100.00
5883;BME280;2967;51.488;6.618;2023-04-15T05:49:37;100683.22;;;8.97;100.00
5883;BME280;2967;51.488;6.618;2023-04-15T05:54:39;100687.38;;;9.01;100.00
5883;BME280;2967;51.488;6.618;2023-04-15T05:59:43;100697.47;;;9.09;100.00
5883;BME280;2967;51.488;6.618;2023-04-15T06:04:46;100707.56;;;9.16;100.00
5883;BME280;2967;51.488;6.618;2023-04-15T06:09:48;100712.56;;;9.21;100.00
5883;BME280;2967;51.488;6.618;2023-04-15T06:14:52;100730.09;;;9.22;100.00
5883;BME280;2967;51.488;6.618;2023-04-15T06:19:55;100730.97;;;9.36;100.00
5883;BME280;2967;51.488;6.618;2023-04-15T06:24:58;100733.25;;;9.42;100.00
5883;BME280;2967;51.488;6.618;2023-04-15T06:30:03;100737.31;;;9.48;100.00
5883;BME280;2967;51.488;6.618;2023-04-15T06:35:06;100743.88;;;9.55;100.00
5883;BME280;2967;51.488;6.618;2023-04-15T06:40:09;100751.81;;;9.69;100.00
5883;BME280;2967;51.488;6.618;2023-04-15T06:45:13;100757.28;;;9.80;100.00
5883;BME280;2967;51.488;6.618;2023-04-15T06:50:16;100753.88;;;9.92;100.00
5883;BME280;2967;51.488;6.618;2023-04-15T06:55:19;100764.28;;;10.09;100.00
5883;BME280;2967;51.488;6.618;2023-04-15T07:00:23;100774.06;;;10.21;100.00
5883;BME280;2967;51.488;6.618;2023-04-15T07:05:26;100777.25;;;10.40;100.00
5883;BME280;2967;51.488;6.618;2023-04-15T07:10:29;100783.53;;;10.51;100.00
5883;BME280;2967;51.488;6.618;2023-04-15T07:15:33;100785.41;;;10.63;100.00
5883;BME280;2967;51.488;6.618;2023-04-15T07:20:36;100797.84;;;10.61;100.00
5883;BME280;2967;51.488;6.618;2023-04-15T07:25:38;100815.63;;;10.85;100.00
5883;BME280;2967;51.488;6.618;2023-04-15T07:30:42;100805.66;;;11.03;100.00
5883;BME280;2967;51.488;6.618;2023-04-15T07:35:45;100811.63;;;11.31;100.00
5883;BME280;2967;51.488;6.618;2023-04-15T07:40:48;100812.94;;;11.51;100.00
5883;BME280;2967;51.488;6.618;2023-04-15T07:45:52;100812.03;;;11.77;100.00
5883;BME280;2967;51.488;6.618;2023-04-15T07:50:55;100824.09;;;11.93;100.00
5883;BME280;2967;51.488;6.618;2023-04-15T07:55:58;100814.47;;;11.92;100.00
5883;BME280;2967;51.488;6.618;2023-04-15T08:01:03;100834.38;;;11.85;100.00
5883;BME280;2967;51.488;6.618;2023-04-15T08:06:06;100840.09;;;11.92;100.00
5883;BME280;2967;51.488;6.618;2023-04-15T08:11:10;100849.66;;;11.94;99.92
5883;BME280;2967;51.488;6.618;2023-04-15T08:16:16;100854.00;;;11.95;98.78
5883;BME280;2967;51.488;6.618;2023-04-15T08:21:20;100857.94;;;12.02;99.04
5883;BME280;2967;51.488;6.618;2023-04-15T08:26:23;100864.47;;;12.22;96.61
5883;BME280;2967;51.488;6.618;2023-04-15T08:31:28;100861.53;;;12.14;95.48
5883;BME280;2967;51.488;6.618;2023-04-15T08:36:31;100866.72;;;12.28;95.52
5883;BME280;2967;51.488;6.618;2023-04-15T08:41:39;100869.38;;;12.28;94.36
5883;BME280;2967;51.488;6.618;2023-04-15T08:46:43;100873.81;;;12.27;94.28
5883;BME280;2967;51.488;6.618;2023-04-15T08:51:46;100876.19;;;12.07;92.27
5883;BME280;2967;51.488;6.618;2023-04-15T08:56:50;100882.44;;;12.18;94.58
5883;BME280;2967;51.488;6.618;2023-04-15T09:01:56;100886.66;;;12.21;94.31
5883;BME280;2967;51.488;6.618;2023-04-15T09:06:59;100891.63;;;12.25;95.39
5883;BME280;2967;51.488;6.618;2023-04-15T09:12:02;100893.22;;;12.40;98.27
5883;BME280;2967;51.488;6.618;2023-04-15T09:17:09;100903.06;;;12.51;95.81
5883;BME280;2967;51.488;6.618;2023-04-15T09:22:12;100899.91;;;12.46;91.79
5883;BME280;2967;51.488;6.618;2023-04-15T09:27:15;100873.06;;;12.38;95.01
5883;BME280;2967;51.488;6.618;2023-04-15T09:32:20;100917.28;;;12.62;92.13
5883;BME280;2967;51.488;6.618;2023-04-15T09:37:34;100908.19;;;12.41;92.66
5883;BME280;2967;51.488;6.618;2023-04-15T09:42:53;100913.03;;;12.60;93.59
5883;BME280;2967;51.488;6.618;2023-04-15T09:47:58;100925.47;;;12.59;98.92
5883;BME280;2967;51.488;6.618;2023-04-15T09:53:02;100936.59;;;12.64;96.36
5883;BME280;2967;51.488;6.618;2023-04-15T09:58:07;100941.25;;;12.61;94.84
5883;BME280;2967;51.488;6.618;2023-04-15T10:03:14;100944.13;;;12.70;94.17
5883;BME280;2967;51.488;6.618;2023-04-15T10:08:20;100951.22;;;12.82;97.08
5883;BME280;2967;51.488;6.618;2023-04-15T10:13:25;100955.88;;;13.04;95.19
5883;BME280;2967;51.488;6.618;2023-04-15T10:18:33;100964.75;;;13.15;96.96
5883;BME280;2967;51.488;6.618;2023-04-15T10:23:37;100969.50;;;13.22;98.36
5883;BME280;2967;51.488;6.618;2023-04-15T10:28:40;100958.53;;;13.27;94.59
5883;BME280;2967;51.488;6.618;2023-04-15T10:33:53;100972.13;;;13.35;93.58
5883;BME280;2967;51.488;6.618;2023-04-15T10:39:40;100975.75;;;13.34;96.41
5883;BME280;2967;51.488;6.618;2023-04-15T10:44:44;100977.34;;;13.36;92.90
5883;BME280;2967;51.488;6.618;2023-04-15T10:49:57;100945.84;;;13.07;93.68
5883;BME280;2967;51.488;6.618;2023-04-15T10:55:02;100971.22;;;13.47;92.32
5883;BME280;2967;51.488;6.618;2023-04-15T11:00:11;100975.41;;;13.62;91.94
5883;BME280;2967;51.488;6.618;2023-04-15T11:05:16;100992.94;;;13.41;92.02
5883;BME280;2967;51.488;6.618;2023-04-15T11:10:49;100994.38;;;13.21;90.83
5883;BME280;2967;51.488;6.618;2023-04-15T11:15:59;100966.44;;;13.16;92.64
5883;BME280;2967;51.488;6.618;2023-04-15T11:21:06;101006.47;;;13.38;92.84
5883;BME280;2967;51.488;6.618;2023-04-15T11:26:10;100967.16;;;12.82;93.00
5883;BME280;2967;51.488;6.618;2023-04-15T11:31:14;101023.56;;;12.98;94.11
5883;BME280;2967;51.488;6.618;2023-04-15T11:36:19;101018.31;;;12.84;92.71
5883;BME280;2967;51.488;6.618;2023-04-15T11:41:22;101024.09;;;12.78;93.26
5883;BME280;2967;51.488;6.618;2023-04-15T11:46:28;101024.69;;;12.82;93.35
5883;BME280;2967;51.488;6.618;2023-04-15T11:51:33;101042.16;;;12.98;92.84
5883;BME280;2967;51.488;6.618;2023-04-15T11:56:36;101035.94;;;12.85;91.38
5883;BME280;2967;51.488;6.618;2023-04-15T12:01:39;101056.03;;;12.89;92.87
5883;BME280;2967;51.488;6.618;2023-04-15T12:06:45;101035.94;;;12.85;93.44
5883;BME280;2967;51.488;6.618;2023-04-15T12:11:48;101048.94;;;13.02;94.54
5883;BME280;2967;51.488;6.618;2023-04-15T12:16:53;101068.47;;;13.14;90.99
5883;BME280;2967;51.488;6.618;2023-04-15T12:22:03;101068.91;;;12.95;92.10
5883;BME280;2967;51.488;6.618;2023-04-15T12:27:07;101067.06;;;12.83;93.12
5883;BME280;2967;51.488;6.618;2023-04-15T12:32:11;101067.16;;;12.82;94.29
5883;BME280;2967;51.488;6.618;2023-04-15T12:37:16;101084.69;;;12.59;95.57
5883;BME280;2967;51.488;6.618;2023-04-15T12:42:18;101093.72;;;12.57;97.56
5883;BME280;2967;51.488;6.618;2023-04-15T12:47:22;101101.34;;;12.61;97.06
5883;BME280;2967;51.488;6.618;2023-04-15T12:52:26;101099.03;;;12.82;96.39
5883;BME280;2967;51.488;6.618;2023-04-15T12:57:29;101121.22;;;12.68;96.05
5883;BME280;2967;51.488;6.618;2023-04-15T13:02:32;101111.31;;;12.58;95.93
5883;BME280;2967;51.488;6.618;2023-04-15T13:07:37;101132.47;;;12.59;95.12
5883;BME280;2967;51.488;6.618;2023-04-15T13:12:39;101124.28;;;12.87;95.09
5883;BME280;2967;51.488;6.618;2023-04-15T13:17:42;101137.47;;;12.89;95.23
5883;BME280;2967;51.488;6.618;2023-04-15T13:22:46;101144.94;;;12.96;95.65
5883;BME280;2967;51.488;6.618;2023-04-15T13:27:49;101148.97;;;12.89;92.91
5883;BME280;2967;51.488;6.618;2023-04-15T13:32:51;101158.78;;;13.14;95.59
5883;BME280;2967;51.488;6.618;2023-04-15T13:37:56;101167.03;;;13.21;93.87
5883;BME280;2967;51.488;6.618;2023-04-15T13:42:59;101167.34;;;12.92;94.09
5883;BME280;2967;51.488;6.618;2023-04-15T13:48:02;101179.31;;;12.85;94.88
5883;BME280;2967;51.488;6.618;2023-04-15T13:53:06;101182.44;;;12.53;95.56
5883;BME280;2967;51.488;6.618;2023-04-15T13:58:10;101194.81;;;12.40;98.55
5883;BME280;2967;51.488;6.618;2023-04-15T14:03:12;101206.81;;;12.45;97.31
5883;BME280;2967;51.488;6.618;2023-04-15T14:08:16;101202.63;;;12.29;95.61
5883;BME280;2967;51.488;6.618;2023-04-15T14:13:19;101213.03;;;12.32;96.06
5883;BME280;2967;51.488;6.618;2023-04-15T14:18:21;101203.13;;;12.21;98.41
5883;BME280;2967;51.488;6.618;2023-04-15T14:23:25;101213.44;;;12.26;98.26
5883;BME280;2967;51.488;6.618;2023-04-15T14:28:28;101225.78;;;12.13;99.52
5883;BME280;2967;51.488;6.618;2023-04-15T14:33:32;101227.50;;;12.14;100.00
5883;BME280;2967;51.488;6.618;2023-04-15T14:38:36;101233.84;;;12.11;99.81
5883;BME280;2967;51.488;6.618;2023-04-15T14:43:40;101237.16;;;12.15;99.71
5883;BME280;2967;51.488;6.618;2023-04-15T14:48:43;101246.16;;;12.12;97.83
5883;BME280;2967;51.488;6.618;2023-04-15T14:53:49;101243.00;;;12.20;99.80
5883;BME280;2967;51.488;6.618;2023-04-15T14:58:53;101256.88;;;12.37;100.00
5883;BME280;2967;51.488;6.618;2023-04-15T15:03:56;101261.34;;;12.37;96.74
5883;BME280;2967;51.488;6.618;2023-04-15T15:09:02;101264.34;;;12.18;99.13
5883;BME280;2967;51.488;6.618;2023-04-15T15:14:06;101266.63;;;12.10;97.89
5883;BME280;2967;51.488;6.618;2023-04-15T15:19:10;101272.47;;;12.15;98.98
5883;BME280;2967;51.488;6.618;2023-04-15T15:24:15;101281.41;;;12.00;99.50
5883;BME280;2967;51.488;6.618;2023-04-15T15:29:18;101278.84;;;11.99;98.89
5883;BME280;2967;51.488;6.618;2023-04-15T15:34:21;101285.09;;;11.98;99.14
5883;BME280;2967;51.488;6.618;2023-04-15T15:39:24;101290.09;;;12.02;98.74
5883;BME280;2967;51.488;6.618;2023-04-15T15:44:27;101300.13;;;11.97;100.00
5883;BME280;2967;51.488;6.618;2023-04-15T15:49:30;101308.69;;;11.88;100.00
5883;BME280;2967;51.488;6.618;2023-04-15T15:54:34;101314.16;;;11.85;100.00
5883;BME280;2967;51.488;6.618;2023-04-15T15:59:38;101305.38;;;11.85;100.00
5883;BME280;2967;51.488;6.618;2023-04-15T16:04:43;101311.88;;;11.93;100.00
5883;BME280;2967;51.488;6.618;2023-04-15T16:09:48;101327.88;;;11.92;100.00
5883;BME280;2967;51.488;6.618;2023-04-15T16:14:51;101336.50;;;11.81;100.00
5883;BME280;2967;51.488;6.618;2023-04-15T16:19:53;101346.63;;;11.75;100.00
5883;BME280;2967;51.488;6.618;2023-04-15T16:25:03;101344.34;;;11.69;100.00
5883;BME280;2967;51.488;6.618;2023-04-15T16:30:07;101347.56;;;11.74;100.00
5883;BME280;2967;51.488;6.618;2023-04-15T16:35:10;101350.31;;;11.72;100.00
5883;BME280;2967;51.488;6.618;2023-04-15T16:40:16;101356.63;;;11.70;100.00
5883;BME280;2967;51.488;6.618;2023-04-15T16:45:19;101368.47;;;11.64;100.00
5883;BME280;2967;51.488;6.618;2023-04-15T16:50:22;101367.44;;;11.37;100.00
5883;BME280;2967;51.488;6.618;2023-04-15T16:55:26;101373.03;;;11.17;100.00
5883;BME280;2967;51.488;6.618;2023-04-15T17:00:29;101372.94;;;11.19;100.00
5883;BME280;2967;51.488;6.618;2023-04-15T17:05:32;101385.50;;;11.15;100.00
5883;BME280;2967;51.488;6.618;2023-04-15T17:10:36;101393.28;;;11.18;100.00
5883;BME280;2967;51.488;6.618;2023-04-15T17:15:39;101291.75;;;10.59;100.00
5883;BME280;2967;51.488;6.618;2023-04-15T17:20:42;101411.66;;;11.06;100.00
5883;BME280;2967;51.488;6.618;2023-04-15T17:25:46;101400.28;;;11.19;100.00
5883;BME280;2967;51.488;6.618;2023-04-15T17:30:49;101403.22;;;10.99;100.00
5883;BME280;2967;51.488;6.618;2023-04-15T17:35:52;101413.88;;;10.98;100.00
5883;BME280;2967;51.488;6.618;2023-04-15T17:40:56;101418.66;;;10.91;100.00
5883;BME280;2967;51.488;6.618;2023-04-15T17:45:59;101435.91;;;10.98;100.00
5883;BME280;2967;51.488;6.618;2023-04-15T17:51:02;101444.00;;;10.95;100.00
5883;BME280;2967;51.488;6.618;2023-04-15T17:56:06;101442.50;;;10.91;100.00
5883;BME280;2967;51.488;6.618;2023-04-15T18:01:09;101453.59;;;10.98;100.00
5883;BME280;2967;51.488;6.618;2023-04-15T18:06:12;101467.75;;;10.97;100.00
5883;BME280;2967;51.488;6.618;2023-04-15T18:11:18;101465.09;;;10.81;100.00
5883;BME280;2967;51.488;6.618;2023-04-15T18:16:21;101473.72;;;10.69;100.00
5883;BME280;2967;51.488;6.618;2023-04-15T18:21:23;101477.06;;;10.73;100.00
5883;BME280;2967;51.488;6.618;2023-04-15T18:26:28;101481.41;;;10.74;100.00
5883;BME280;2967;51.488;6.618;2023-04-15T18:31:31;101485.25;;;10.68;100.00
5883;BME280;2967;51.488;6.618;2023-04-15T18:36:34;101505.88;;;10.62;100.00
5883;BME280;2967;51.488;6.618;2023-04-15T18:41:41;101518.09;;;10.64;100.00
5883;BME280;2967;51.488;6.618;2023-04-15T18:46:44;101516.53;;;10.60;100.00
5883;BME280;2967;51.488;6.618;2023-04-15T18:51:47;101518.28;;;10.44;100.00
5883;BME280;2967;51.488;6.618;2023-04-15T18:56:51;101535.44;;;10.38;100.00
5883;BME280;2967;51.488;6.618;2023-04-15T19:01:54;101533.75;;;10.52;100.00
5883;BME280;2967;51.488;6.618;2023-04-15T19:06:57;101540.44;;;10.59;100.00
5883;BME280;2967;51.488;6.618;2023-04-15T19:12:02;101553.91;;;10.54;100.00
5883;BME280;2967;51.488;6.618;2023-04-15T19:17:05;101555.59;;;10.55;100.00
5883;BME280;2967;51.488;6.618;2023-04-15T19:22:08;101561.38;;;10.46;100.00
5883;BME280;2967;51.488;6.618;2023-04-15T19:27:13;101567.28;;;10.35;100.00
5883;BME280;2967;51.488;6.618;2023-04-15T19:32:16;101568.78;;;10.40;100.00
5883;BME280;2967;51.488;6.618;2023-04-15T19:37:20;101571.53;;;10.39;100.00
5883;BME280;2967;51.488;6.618;2023-04-15T19:42:25;101580.69;;;10.32;100.00
5883;BME280;2967;51.488;6.618;2023-04-15T19:47:27;101592.28;;;10.29;100.00
5883;BME280;2967;51.488;6.618;2023-04-15T19:52:30;101589.25;;;10.20;100.00
5883;BME280;2967;51.488;6.618;2023-04-15T19:57:34;101603.47;;;10.17;100.00
5883;BME280;2967;51.488;6.618;2023-04-15T20:02:37;101601.44;;;10.05;100.00
5883;BME280;2967;51.488;6.618;2023-04-15T20:07:39;101600.69;;;10.03;100.00
5883;BME280;2967;51.488;6.618;2023-04-15T20:12:47;101563.78;;;9.83;100.00
5883;BME280;2967;51.488;6.618;2023-04-15T20:17:53;101611.03;;;10.08;100.00
5883;BME280;2967;51.488;6.618;2023-04-15T20:22:57;101606.00;;;10.02;100.00
5883;BME280;2967;51.488;6.618;2023-04-15T20:28:01;101602.47;;;10.01;100.00
5883;BME280;2967;51.488;6.618;2023-04-15T20:33:04;101597.19;;;9.84;100.00
5883;BME280;2967;51.488;6.618;2023-04-15T20:38:08;101612.31;;;9.81;100.00
5883;BME280;2967;51.488;6.618;2023-04-15T20:43:13;101619.47;;;9.79;100.00
5883;BME280;2967;51.488;6.618;2023-04-15T20:48:17;101617.28;;;9.87;100.00
5883;BME280;2967;51.488;6.618;2023-04-15T20:53:20;101620.25;;;9.81;100.00
5883;BME280;2967;51.488;6.618;2023-04-15T20:58:24;101621.47;;;9.92;100.00
5883;BME280;2967;51.488;6.618;2023-04-15T21:03:27;101618.56;;;9.97;100.00
5883;BME280;2967;51.488;6.618;2023-04-15T21:08:30;101623.72;;;10.00;100.00
5883;BME280;2967;51.488;6.618;2023-04-15T21:13:34;101631.56;;;10.01;100.00
5883;BME280;2967;51.488;6.618;2023-04-15T21:18:36;101628.69;;;9.89;100.00
5883;BME280;2967;51.488;6.618;2023-04-15T21:23:39;101637.53;;;9.88;100.00
5883;BME280;2967;51.488;6.618;2023-04-15T21:28:44;101640.09;;;9.89;100.00
5883;BME280;2967;51.488;6.618;2023-04-15T21:33:47;101636.44;;;9.92;100.00
5883;BME280;2967;51.488;6.618;2023-04-15T21:38:49;101647.22;;;9.87;100.00
5883;BME280;2967;51.488;6.618;2023-04-15T21:43:53;101662.16;;;10.07;100.00
5883;BME280;2967;51.488;6.618;2023-04-15T21:48:56;101667.59;;;9.85;100.00
5883;BME280;2967;51.488;6.618;2023-04-15T21:53:58;101672.72;;;9.88;100.00
5883;BME280;2967;51.488;6.618;2023-04-15T21:59:02;101671.19;;;9.84;100.00
5883;BME280;2967;51.488;6.618;2023-04-15T22:04:05;101682.88;;;9.97;100.00
5883;BME280;2967;51.488;6.618;2023-04-15T22:09:08;101681.03;;;9.81;100.00
5883;BME280;2967;51.488;6.618;2023-04-15T22:14:15;101679.16;;;9.83;100.00
5883;BME280;2967;51.488;6.618;2023-04-15T22:19:18;101672.03;;;9.66;100.00
5883;BME280;2967;51.488;6.618;2023-04-15T22:24:21;101684.25;;;9.69;100.00
5883;BME280;2967;51.488;6.618;2023-04-15T22:29:42;101657.03;;;9.67;100.00
5883;BME280;2967;51.488;6.618;2023-04-15T22:34:44;101688.03;;;9.82;100.00
5883;BME280;2967;51.488;6.618;2023-04-15T22:39:47;101700.31;;;9.83;100.00
5883;BME280;2967;51.488;6.618;2023-04-15T22:44:51;101695.00;;;9.83;100.00
5883;BME280;2967;51.488;6.618;2023-04-15T22:49:53;101702.94;;;9.83;100.00
5883;BME280;2967;51.488;6.618;2023-04-15T22:54:56;101704.59;;;9.85;100.00
5883;BME280;2967;51.488;6.618;2023-04-15T23:00:00;101701.41;;;9.96;100.00
5883;BME280;2967;51.488;6.618;2023-04-15T23:05:03;101708.00;;;9.87;100.00
5883;BME280;2967;51.488;6.618;2023-04-15T23:10:13;101714.56;;;9.97;100.00
5883;BME280;2967;51.488;6.618;2023-04-15T23:15:17;101722.78;;;9.73;100.00
5883;BME280;2967;51.488;6.618;2023-04-15T23:20:20;101724.28;;;9.97;100.00
5883;BME280;2967;51.488;6.618;2023-04-15T23:25:23;101716.59;;;9.92;100.00
5883;BME280;2967;51.488;6.618;2023-04-15T23:30:27;101721.00;;;9.92;100.00
5883;BME280;2967;51.488;6.618;2023-04-15T23:35:29;101721.16;;;9.89;100.00
5883;BME280;2967;51.488;6.618;2023-04-15T23:40:32;101726.09;;;9.96;100.00
5883;BME280;2967;51.488;6.618;2023-04-15T23:45:36;101723.50;;;9.95;100.00
5883;BME280;2967;51.488;6.618;2023-04-15T23:50:38;101725.88;;;10.01;100.00
5883;BME280;2967;51.488;6.618;2023-04-15T23:55:41;101731.63;;;9.90;100.00
